Flight Track Log - Related Links

Times and Time Zones

All times are in EDT time to prevent confusion due to time zone crossing. See the N244A flight status page for this flight to view local times or setup timezone preferences in your user account.

Time Position Orientation Groundspeed Altitude Reporting Facility
EDT Latitude Longitude Course Direction KTS MPH feet Rate Location/Type
Fri 06:30:00 PM 41.5387 -95.3648 267° West  Level Estimated
Fri 06:31:00 PM 41.5233 -95.5043 262° West  Level Estimated
Fri 06:32:00 PM 41.5076 -95.6436 262° West  Level Estimated
Fri 06:33:00 PM 41.4918 -95.7829 261° West  Level Estimated
Fri 06:34:00 PM 41.4758 -95.9222 261° West  Level Estimated
Fri 06:35:00 PM 41.4597 -96.0613 261° West  Level Estimated
Fri 06:36:00 PM 41.4433 -96.2004 261° West  Level Estimated
Fri 06:37:00 PM 41.4268 -96.3395 261° West  Level Estimated
Fri 06:38:00 PM 41.4102 -96.4784 261° West  Level Estimated
Fri 06:39:00 PM 41.3934 -96.6173 261° West  Level Estimated
Fri 06:40:00 PM 41.3764 -96.7561 261° West  Level Estimated
Fri 06:40:43 PM 41.0186 -96.9097 260° West 466 536 38,000  Level Minneapolis Center
Fri 06:41:00 PM 41.3592 -96.8949 261° West  Level Estimated
Fri 06:41:45 PM 40.9958 -97.0786 260° West 467 537 38,000  Level Minneapolis Center
Fri 06:42:00 PM 41.3419 -97.0335 261° West  Level Estimated
Fri 06:42:47 PM 40.9769 -97.2483 262° West 466 536 38,000  Level Minneapolis Center
Fri 06:43:00 PM 41.3227 -97.1854 261° West  Level Estimated
Fri 06:43:49 PM 40.9539 -97.4267 260° West 468 539 38,000  Level Minneapolis Center
Fri 06:44:00 PM 41.3033 -97.3372 260° West  Level Estimated
Fri 06:44:51 PM 40.9319 -97.5964 260° West 469 540 38,000  Level Minneapolis Center
Fri 06:45:00 PM 41.2838 -97.4890 260° West  Level Estimated
Fri 06:45:53 PM 40.9114 -97.7661 261° West 468 539 38,000  Level Minneapolis Center
Fri 06:46:56 PM 40.8872 -97.9358 259° West 469 540 38,000  Level Minneapolis Center
Fri 06:47:58 PM 40.8600 -98.1400 260° West 469 540 38,000  Level Minneapolis Center
Fri 06:49:12 PM 40.8369 -98.3092 260° West 468 539 38,000  Level Minneapolis Center
Fri 06:50:14 PM 40.8119 -98.5003 260° West 467 537 38,000  Level Minneapolis Center
Fri 06:51:16 PM 40.7872 -98.6678 259° West 466 536 38,000  Level Minneapolis Center
Fri 06:52:30 PM 40.7589 -98.8697 260° West 467 537 38,000  Level Minneapolis Center
Fri 06:53:33 PM 40.7350 -99.0550 260° West 464 534 38,000  Level Minneapolis Center
Fri 06:54:33 PM 40.7111 -99.2225 259° West 463 533 38,000  Level Denver Center
Fri 06:55:35 PM 40.6858 -99.3897 259° West 464 534 38,000  Level Denver Center
Fri 06:56:37 PM 40.6619 -99.5561 259° West 462 532 38,000  Level Denver Center
Fri 06:57:38 PM 40.6333 -99.7547 259° West 459 528 38,000  Level Denver Center
Fri 06:58:40 PM 40.6086 -99.9186 259° West 458 527 38,000  Level Denver Center
Fri 06:59:42 PM 40.5853 -100.0764 259° West 459 528 38,000  Level Denver Center
Fri 06:59:42 PM 40.5853 -100.0764 259° West 459 528 38,000  Level Denver Center
Fri 06:59:42 PM 40.5853 -100.0764 259° West 459 528 38,000  Level Denver Center
Fri 06:59:42 PM 40.5853 -100.0764 259° West 459 528 38,000  Level Denver Center
Fri 07:00:44 PM 40.5550 -100.2586 258° West 455 524 38,000  Level Denver Center
Fri 07:01:46 PM 40.5319 -100.4161 259° West 456 525 38,000  Level Denver Center
Fri 07:02:47 PM 40.5081 -100.5728 259° West 456 525 38,000  Level Denver Center
Fri 07:03:49 PM 40.4775 -100.7564 258° West 457 526 38,000  Level Denver Center
Fri 07:04:51 PM 40.4544 -100.9144 259° West 458 527 38,000  Level Denver Center
Fri 07:05:53 PM 40.4292 -101.0978 260° West 454 522 38,000  Level Denver Center
Fri 07:06:55 PM 40.4114 -101.2572 262° West 458 527 38,000  Level Denver Center
Fri 07:07:56 PM 40.3897 -101.4150 260° West 459 528 38,000  Level Denver Center
Fri 07:08:58 PM 40.3683 -101.6028 262° West 465 535 38,000  Level Denver Center
Fri 07:10:00 PM 40.3478 -101.7597 260° West 459 528 38,000  Level Denver Center
Fri 07:11:02 PM 40.3225 -101.9447 260° West 462 532 38,000 -48 Level Denver Center
Fri 07:12:04 PM 40.3017 -102.1039 260° West 462 532 37,900 -339 Descending Denver Center
Fri 07:13:06 PM 40.2769 -102.2903 260° West 465 535 37,300 -677 Descending Denver Center
Fri 07:14:08 PM 40.2558 -102.4522 260° West 471 542 36,500 -634 Descending Denver Center
Fri 07:15:09 PM 40.2303 -102.6403 260° West 470 541 36,000 -244 Descending Denver Center
Fri 07:16:11 PM 40.2067 -102.8078 260° West 471 542 36,000  Level Denver Center
Fri 07:17:13 PM 40.1828 -102.9750 259° West 469 540 36,000  Level Denver Center
Fri 07:18:15 PM 40.1606 -103.1453 260° West 475 547 36,000  Level Denver Center
Fri 07:19:17 PM 40.1414 -103.3147 262° West 473 544 36,000  Level Denver Center
Fri 07:20:19 PM 40.1344 -103.4864 267° West 474 545 36,000  Level Denver Center
Fri 07:21:21 PM 40.1192 -103.6917 265° West 475 547 36,000  Level Denver Center
Fri 07:22:23 PM 40.1067 -103.8650 265° West 481 554 36,000  Level Denver Center
Fri 07:23:25 PM 40.0947 -104.0331 265° West 470 541 36,000 -435 Level Denver Center
Fri 07:24:27 PM 40.0819 -104.2014 264° West 467 537 35,100 -1,548 Descending Denver Center
Fri 07:25:29 PM 40.0681 -104.3686 264° West 468 539 32,800 -2,081 Descending Denver Center
Fri 07:26:31 PM 40.0525 -104.5700 264° West 466 536 30,800 -1,355 Descending Denver Center
Fri 07:27:33 PM 40.0397 -104.7344 264° West 459 528 30,000 -387 Descending Denver Center
Fri 07:28:35 PM 40.0311 -104.8944 266° West 449 517 30,000 -339 Level Denver Center
Fri 07:29:37 PM 40.0331 -105.0594 271° West 452 520 29,300 -1,258 Descending Denver Center
Fri 07:30:39 PM 40.0297 -105.2172 268° West 441 507 27,400 -1,645 Descending Denver Center
Fri 07:31:41 PM 40.0242 -105.4058 268° West 433 498 25,900 -1,597 Descending Denver Center
Fri 07:32:43 PM 40.0244 -105.5489 270° West 400 460 24,100 -919 Descending Denver Center
Fri 07:33:45 PM 40.0086 -105.6886 262° West 368 423 24,000 -48 Descending Denver Center
Fri 07:34:47 PM 39.9750 -105.8019 249° West 337 388 24,000 -581 Level Denver Center
Fri 07:35:49 PM 39.9494 -105.9003 251° West 308 354 22,800 -1,694 Descending Denver Center
Fri 07:36:51 PM 39.9214 -106.0131 252° West 324 373 20,500 -2,419 Descending Denver Center
Fri 07:37:53 PM 39.8864 -106.1536 252° West 339 390 17,800 -1,935 Descending Denver Center
Fri 07:38:55 PM 39.8608 -106.2511 251° West 336 387 16,500 -871 Descending Denver Center
Fri 07:39:57 PM 39.8275 -106.3806 252° West 322 371 16,000 -242 Descending Denver Center
Fri 07:40:59 PM 39.8061 -106.4600 251° West 248 285 16,000 -435 Level Denver Center
Fri 07:42:01 PM 39.7844 -106.5292 248° West 216 249 15,100 -435 Descending Denver Center
Fri 07:43:03 PM 39.7339 -106.5539 201° Southwest 194 223 15,100 -339 Level Denver Center
Fri 07:44:05 PM 39.6775 -106.5869 204° Southwest 228 262 14,400 -871 Descending Denver Center
Fri 07:45:07 PM 39.6828 -106.6586 275° West 205 236 13,300 -1,392 Descending Denver Center
Fri 07:46:10 PM 39.6733 -106.7114 257° West 158 182 11,500 -1,728 Descending Denver Center
Fri 07:47:12 PM 39.6642 -106.7661 258° West 154 177 9,700 -1,500 Descending Denver Center
Fri 07:48:14 PM 39.6572 -106.8319 262° West 154 177 8,400 -968 Descending Denver Center
Fri 07:49:16 PM 39.6461 -106.8856 255° West 154 177 7,700 -387 Descending Denver Center
Fri 07:50:18 PM 39.6258 -106.9267 237° Southwest 155 178 7,600 -532 Descending Denver Center
Fri 07:51:20 PM 39.6383 -106.9508 304° West 138 159 6,600 -968 Descending Denver Center
Fri 07:53:00 PM 39.6427 -106.9159 38° Northeast  Level Estimated

Login

Don't have an account? Register now (free) for customized features, flight alerts, and more!